Axtell, UT

6:13 PM MDT on August 22, 2014 (GMT -0600)
Carbon County | Change Station
CLOSE
Current Station
Airport
Location: Price,
Elevation: 5955 ft
Nearby Weather Stations

Elev 5955 ft 39.61 °N, 110.75 °W | Updated 20 minutes ago

Light Rain
Light Rain
63 °F
Feels Like 63 °F
N
8
Wind Variable Wind from NE

Today
High -- | Low -- °F
--% Chance of Precip.
Yesterday
High -- | Low -- °F
Precip. -- in
6:46 AM 8:12 PM
Waning Crescent, 6% visible
Pressure 29.90 in
Visibility 10.0 miles
Clouds Mostly Cloudy 8000 ft
Overcast 10000 ft
Dew Point 55 °F
Humidity 75%
Rainfall 0.05 in
Snow Depth Not available.
UV 1 out of 12
Pollen 8.50 out of 12
Air Quality Not available.
Flu Activity Not available.
METAR KPUC 222353Z AUTO 05007KT 10SM -RA BKN080 OVC100 17/13 A3003 RMK AO2 WSHFT 2254 RAB2254 SLP125 P0005 60005 T01720128 10261 20161 56007

More Conditions Fewer Conditions

Pressure 29.90 in
Visibility 10.0 miles
Clouds Mostly Cloudy 8000 ft
Overcast 10000 ft
Dew Point 55 °F
Humidity 75%
Rainfall 0.05 in
Snow Depth Not available.
UV 1 out of 12
Pollen 8.50 out of 12
Air Quality Not available.
Flu Activity Not available.
METAR KPUC 222353Z AUTO 05007KT 10SM -RA BKN080 OVC100 17/13 A3003 RMK AO2 WSHFT 2254 RAB2254 SLP125 P0005 60005 T01720128 10261 20161 56007

More Conditions Fewer Conditions

10-Day Weather Forecast

Almanac

Astronomy

Aug. 22, 2014 Rise Set
Actual Time 6:46 AM MDT 8:12 PM MDT
Civil Twilight 6:18 AM MDT 8:40 PM MDT
Nautical Twilight 5:45 AM MDT 9:13 PM MDT
Astronomical Twilight 5:09 AM MDT 9:49 PM MDT
Moon 4:13 AM MDT (8/22) 6:22 PM MDT (8/22)
Length of Visible Light 14h 21m
Length of Day
13h 25m
Tomorrow will be 2m 21s shorter.
Waning Crescent, 6% of the Moon is Illuminated
Today
Waning Crescent
Aug 25
New
Sep 2
First Quarter
Sep 8
Full
Sep 15
Last Quarter

Today's Extremes

State Highs State Lows

Community

WunderPhotos

Upload Photos

1,746,317 photos uploaded!

WunderBlogs® & News

By Dr. Jeff Masters
Director of Meteorology, Weather Underground
By Kari Strenfel
Meteorologist, Weather Underground
By Christopher C. Burt
Weather Historian, Weather Underground
August 22, 2014
August 22, 2014
August 22, 2014

Nearby

Snow Depth

Station Depth Elevation
Gooseberry R.S. 0 in 7920 ft
Seeley Creek 0 in 10000 ft
Daniels-Strawberry 0 in 8000 ft
Rocky Basin-Settlement 0 in 8900 ft
Dry Fork 0 in 7160 ft

Earthquake Activity

City Distance Mag. Time & Date
No recent earthquake activity has been reported nearby.
Minimum magnitude displayed is 2.5.

Coastal Water Temperatures

Place Temperature
No Stations Reporting

Nearby Weather Stations